createdAt,value
2022-12-14T00:02:09.209Z,62.58
2022-12-14T00:04:38.762Z,62.63
2022-12-14T00:07:08.220Z,61.16
2022-12-14T00:09:37.681Z,60.71
2022-12-14T00:12:07.280Z,61.61
2022-12-14T00:14:40.026Z,62.19
2022-12-14T00:17:09.652Z,62.01
2022-12-14T00:19:39.271Z,62.42
2022-12-14T00:22:08.732Z,62.73
2022-12-14T00:24:38.291Z,63.48
2022-12-14T00:27:07.785Z,63.64
2022-12-14T00:29:39.824Z,63.04
2022-12-14T00:32:09.307Z,62.50
2022-12-14T00:34:39.017Z,61.23
2022-12-14T00:37:08.476Z,61.15
2022-12-14T00:39:38.000Z,61.83
2022-12-14T00:42:07.626Z,62.49
2022-12-14T00:44:39.674Z,61.24
2022-12-14T00:47:09.714Z,60.61
2022-12-14T00:49:39.170Z,61.25
2022-12-14T00:52:08.681Z,61.26
2022-12-14T00:54:38.188Z,61.25
2022-12-14T00:57:07.657Z,60.51
2022-12-14T00:59:39.741Z,59.53
2022-12-14T01:02:09.337Z,59.68
2022-12-14T01:04:39.077Z,59.54
2022-12-14T01:07:08.732Z,59.93
2022-12-14T01:09:38.478Z,59.47
2022-12-14T01:12:08.480Z,60.32
2022-12-14T01:14:40.590Z,60.90
2022-12-14T01:17:10.056Z,61.51
2022-12-14T01:19:39.538Z,61.96
2022-12-14T01:22:10.336Z,62.36
2022-12-14T01:24:39.886Z,60.56
2022-12-14T01:27:09.384Z,60.63
2022-12-14T01:29:41.532Z,60.13
2022-12-14T01:32:11.168Z,59.76
2022-12-14T01:34:40.645Z,59.21
2022-12-14T01:37:10.112Z,60.06
2022-12-14T01:39:39.588Z,59.61
2022-12-14T01:42:12.476Z,59.15
2022-12-14T01:45:00.718Z,59.14
2022-12-14T01:47:37.457Z,60.11
2022-12-14T01:50:11.328Z,60.40
2022-12-14T01:52:42.972Z,61.56
2022-12-14T01:55:15.524Z,60.80
2022-12-14T01:57:46.871Z,60.74
2022-12-14T02:00:19.542Z,60.40
2022-12-14T02:02:52.440Z,59.56
2022-12-14T02:05:22.447Z,61.75
2022-12-14T02:07:51.900Z,61.74
2022-12-14T02:10:21.924Z,60.59
2022-12-14T02:12:52.053Z,59.57
2022-12-14T02:15:24.198Z,59.59
2022-12-14T02:17:53.850Z,59.98
2022-12-14T02:20:23.329Z,60.38
2022-12-14T02:23:07.672Z,60.26
2022-12-14T02:25:49.189Z,59.59
2022-12-14T02:28:33.711Z,60.05
2022-12-14T02:31:08.563Z,60.34
2022-12-14T02:33:42.157Z,60.54
2022-12-14T02:36:14.406Z,61.80
2022-12-14T02:38:49.333Z,62.66
2022-12-14T02:41:20.707Z,62.70
2022-12-14T02:43:54.265Z,61.97
2022-12-14T02:46:28.363Z,61.31
2022-12-14T02:49:01.445Z,61.36
2022-12-14T02:51:34.257Z,61.98
2022-12-14T02:54:04.358Z,61.91
2022-12-14T02:56:36.489Z,61.82
2022-12-14T02:59:06.113Z,61.63
2022-12-14T03:01:38.382Z,61.31
2022-12-14T03:04:08.842Z,62.06
2022-12-14T03:06:38.417Z,62.52
2022-12-14T03:09:11.169Z,62.51
2022-12-14T03:11:42.856Z,62.40
2022-12-14T03:14:14.936Z,61.53
2022-12-14T03:16:47.673Z,61.80
2022-12-14T03:19:20.141Z,62.06
2022-12-14T03:21:51.691Z,62.35
2022-12-14T03:24:23.361Z,62.24
2022-12-14T03:26:54.555Z,62.39
2022-12-14T03:29:25.399Z,62.45
2022-12-14T03:31:58.815Z,62.05
2022-12-14T03:34:30.469Z,62.20
2022-12-14T03:37:02.552Z,62.19
2022-12-14T03:39:34.868Z,62.29
2022-12-14T03:42:07.540Z,62.25
2022-12-14T03:44:48.952Z,62.42
2022-12-14T03:47:28.631Z,62.82
2022-12-14T03:50:01.763Z,62.23
2022-12-14T03:52:34.123Z,62.72
2022-12-14T03:55:11.131Z,61.75
2022-12-14T03:57:49.816Z,62.91
2022-12-14T04:00:20.183Z,62.17
2022-12-14T04:02:53.630Z,61.91
2022-12-14T04:05:25.301Z,61.91
2022-12-14T04:07:57.921Z,61.95
2022-12-14T04:10:40.567Z,62.05
2022-12-14T04:13:24.325Z,62.08
2022-12-14T04:16:06.495Z,62.06
2022-12-14T04:18:59.077Z,60.56
2022-12-14T04:21:35.319Z,60.07
2022-12-14T04:24:18.867Z,60.70
2022-12-14T04:26:52.384Z,60.13
2022-12-14T04:29:35.074Z,60.73
2022-12-14T04:32:07.550Z,61.58
2022-12-14T04:34:39.684Z,61.02
2022-12-14T04:37:10.876Z,61.28
2022-12-14T04:39:42.688Z,60.42
2022-12-14T04:42:12.129Z,59.90
2022-12-14T04:44:43.252Z,61.07
2022-12-14T04:47:14.149Z,61.45
2022-12-14T04:49:49.003Z,62.33
2022-12-14T04:52:20.403Z,61.73
2022-12-14T04:54:51.929Z,62.32
2022-12-14T04:57:24.071Z,61.87
2022-12-14T04:59:53.668Z,60.31
2022-12-14T05:02:25.509Z,58.97
2022-12-14T05:05:00.104Z,58.77
2022-12-14T05:07:37.396Z,58.75
2022-12-14T05:10:08.721Z,58.37
2022-12-14T05:12:40.415Z,58.08
2022-12-14T05:15:11.743Z,57.38
2022-12-14T05:17:41.744Z,56.94
2022-12-14T05:20:19.735Z,57.19
2022-12-14T05:22:49.703Z,56.42
2022-12-14T05:25:19.640Z,56.34
2022-12-14T05:27:49.125Z,55.83
2022-12-14T05:30:18.828Z,56.07
2022-12-14T05:32:48.330Z,56.29
2022-12-14T05:35:20.621Z,55.89
2022-12-14T05:37:50.093Z,55.64
2022-12-14T05:40:19.876Z,55.54
2022-12-14T05:42:55.232Z,56.40
2022-12-14T05:45:25.231Z,56.41
2022-12-14T05:47:54.694Z,56.84
2022-12-14T05:50:26.765Z,56.29
2022-12-14T05:52:56.272Z,56.91
2022-12-14T05:55:25.782Z,56.85
2022-12-14T05:57:55.234Z,56.33
2022-12-14T06:00:25.037Z,56.34
2022-12-14T06:02:55.483Z,56.58
2022-12-14T06:05:27.629Z,57.25
2022-12-14T06:07:57.084Z,59.03
2022-12-14T06:10:26.538Z,59.07
2022-12-14T06:12:56.545Z,58.77
2022-12-14T06:15:33.645Z,60.01
2022-12-14T06:18:03.446Z,63.65
2022-12-14T06:20:35.751Z,65.44
2022-12-14T06:23:05.198Z,67.43
2022-12-14T06:25:34.659Z,68.06
2022-12-14T06:28:04.156Z,69.18
2022-12-14T06:30:33.634Z,69.87
2022-12-14T06:33:03.112Z,68.60
2022-12-14T06:35:35.140Z,68.64
2022-12-14T06:38:04.586Z,69.12
2022-12-14T06:40:34.040Z,68.55
2022-12-14T06:43:03.498Z,69.74
2022-12-14T06:45:32.997Z,70.47
2022-12-14T06:48:02.439Z,70.77
2022-12-14T06:50:31.988Z,70.30
2022-12-14T06:53:04.283Z,71.01
2022-12-14T06:55:33.754Z,70.67
2022-12-14T06:58:03.211Z,70.78
2022-12-14T07:00:32.783Z,71.00
2022-12-14T07:03:02.424Z,70.95
2022-12-14T07:05:31.974Z,71.95
2022-12-14T07:08:04.060Z,71.84
2022-12-14T07:10:33.555Z,70.90
2022-12-14T07:13:03.007Z,70.32
2022-12-14T07:15:32.491Z,70.28
2022-12-14T07:18:02.224Z,70.82
2022-12-14T07:20:31.656Z,70.27
2022-12-14T07:23:03.740Z,70.56
2022-12-14T07:25:33.187Z,72.41
2022-12-14T07:28:02.686Z,72.75
2022-12-14T07:30:32.117Z,72.90
2022-12-14T07:33:01.671Z,72.44
2022-12-14T07:35:31.390Z,72.14
2022-12-14T07:38:00.881Z,72.54
2022-12-14T07:40:32.924Z,75.33
2022-12-14T07:43:02.377Z,74.58
2022-12-14T07:45:31.920Z,73.62
2022-12-14T07:48:01.413Z,72.95
2022-12-14T07:50:30.896Z,73.13
2022-12-14T07:53:01.372Z,71.86
2022-12-14T07:55:33.438Z,71.22
2022-12-14T07:58:02.920Z,70.41
2022-12-14T08:00:32.372Z,69.98
2022-12-14T08:03:01.842Z,69.30
2022-12-14T08:05:31.482Z,69.28
2022-12-14T08:08:00.968Z,68.99
2022-12-14T08:10:37.157Z,69.40
2022-12-14T08:13:09.721Z,68.43
2022-12-14T08:15:40.224Z,68.19
2022-12-14T08:18:09.689Z,68.03
2022-12-14T08:20:39.132Z,68.19
2022-12-14T08:23:08.583Z,67.80
2022-12-14T08:25:40.621Z,67.63
2022-12-14T08:28:10.114Z,67.32
2022-12-14T08:30:41.496Z,66.90
2022-12-14T08:33:10.989Z,67.13
2022-12-14T08:35:40.443Z,67.58
2022-12-14T08:38:10.268Z,67.22
2022-12-14T08:40:42.420Z,67.42
2022-12-14T08:43:11.884Z,67.65
2022-12-14T08:45:41.423Z,67.02
2022-12-14T08:48:11.632Z,66.78
2022-12-14T08:50:41.133Z,67.41
2022-12-14T08:53:10.607Z,67.54
2022-12-14T08:55:42.714Z,67.61
2022-12-14T08:58:12.232Z,67.76
2022-12-14T09:00:41.714Z,67.37
2022-12-14T09:03:11.938Z,68.89
2022-12-14T09:05:41.437Z,69.39
2022-12-14T09:08:10.898Z,67.12
2022-12-14T09:10:42.954Z,66.75
2022-12-14T09:13:13.430Z,66.50
2022-12-14T09:15:42.986Z,66.53
2022-12-14T09:18:12.535Z,66.58
2022-12-14T09:20:41.976Z,67.17
2022-12-14T09:23:11.458Z,67.19
2022-12-14T09:25:43.516Z,67.90
2022-12-14T09:28:12.991Z,67.66
2022-12-14T09:30:42.424Z,67.53
2022-12-14T09:33:11.923Z,68.38
2022-12-14T09:35:41.368Z,67.76
2022-12-14T09:38:10.819Z,67.73
2022-12-14T09:40:42.840Z,67.87
2022-12-14T09:43:19.823Z,68.18
2022-12-14T09:45:51.361Z,69.42
2022-12-14T09:48:21.468Z,69.60
2022-12-14T09:50:51.065Z,70.90
2022-12-14T09:53:21.055Z,71.10
2022-12-14T09:55:54.599Z,69.19
2022-12-14T09:58:25.121Z,68.57
2022-12-14T10:00:56.749Z,67.68
2022-12-14T10:03:46.570Z,67.48
2022-12-14T10:06:34.185Z,67.67
2022-12-14T10:09:13.141Z,67.58
2022-12-14T10:11:47.914Z,66.98
2022-12-14T10:14:20.965Z,67.04
2022-12-14T10:16:53.363Z,66.77
2022-12-14T10:19:29.332Z,66.26
2022-12-14T10:22:01.469Z,65.60
2022-12-14T10:24:34.012Z,66.04
2022-12-14T10:27:06.250Z,66.07
2022-12-14T10:29:37.948Z,64.85
2022-12-14T10:32:14.197Z,64.58
2022-12-14T10:34:43.922Z,65.23
2022-12-14T10:37:25.650Z,65.17
2022-12-14T10:40:31.142Z,65.15
2022-12-14T10:43:30.089Z,64.74
2022-12-14T10:46:08.543Z,64.92
2022-12-14T10:48:45.221Z,65.03
2022-12-14T10:51:17.095Z,64.54
2022-12-14T10:53:48.931Z,63.89
2022-12-14T10:56:21.021Z,63.90
2022-12-14T10:59:20.706Z,64.14
2022-12-14T11:01:51.624Z,64.66
2022-12-14T11:04:21.892Z,64.09
2022-12-14T11:06:51.455Z,65.33
2022-12-14T11:09:22.692Z,64.91
2022-12-14T11:11:52.168Z,65.31
2022-12-14T11:14:25.313Z,65.49
2022-12-14T11:16:54.879Z,66.33
2022-12-14T11:19:25.220Z,67.11
2022-12-14T11:22:06.868Z,65.71
2022-12-14T11:24:37.167Z,65.34
2022-12-14T11:27:06.677Z,67.12
2022-12-14T11:29:40.510Z,66.02
2022-12-14T11:32:10.116Z,64.54
2022-12-14T11:34:40.995Z,64.55
2022-12-14T11:37:14.328Z,64.42
2022-12-14T11:39:44.373Z,63.86
2022-12-14T11:42:19.004Z,64.53
2022-12-14T11:44:51.675Z,64.18
2022-12-14T11:47:21.607Z,63.76
2022-12-14T11:49:52.166Z,66.15
2022-12-14T11:52:22.482Z,65.37
2022-12-14T11:55:06.819Z,65.53
2022-12-14T11:57:38.744Z,65.36
2022-12-14T12:00:24.415Z,67.18
2022-12-14T12:02:59.789Z,67.69
2022-12-14T12:05:29.556Z,67.52
2022-12-14T12:07:59.896Z,67.47
2022-12-14T12:10:30.847Z,67.22
2022-12-14T12:13:01.113Z,67.45
2022-12-14T12:15:36.699Z,67.53
2022-12-14T12:18:07.856Z,66.46
2022-12-14T12:20:38.393Z,65.40
2022-12-14T12:23:09.580Z,65.06
2022-12-14T12:25:39.114Z,64.48
2022-12-14T12:28:13.013Z,64.10
2022-12-14T12:30:46.022Z,64.11
2022-12-14T12:33:23.607Z,63.69
2022-12-14T12:35:54.541Z,65.40
2022-12-14T12:38:29.303Z,66.91
2022-12-14T12:41:03.006Z,67.41
2022-12-14T12:43:42.128Z,66.71
2022-12-14T12:46:17.558Z,65.67
2022-12-14T12:48:49.336Z,64.42
2022-12-14T12:51:19.824Z,63.88
2022-12-14T12:53:50.362Z,64.33
2022-12-14T12:56:21.891Z,64.55
2022-12-14T12:58:53.150Z,64.40
2022-12-14T13:01:29.096Z,64.08
2022-12-14T13:04:00.431Z,63.71
2022-12-14T13:06:32.553Z,62.81
2022-12-14T13:09:02.793Z,62.15
2022-12-14T13:11:34.127Z,62.42
2022-12-14T13:14:06.159Z,62.42
2022-12-14T13:16:39.842Z,60.19
2022-12-14T13:19:48.342Z,59.26
2022-12-14T13:22:06.363Z,60.11
2022-12-14T13:24:37.495Z,61.75
2022-12-14T13:27:22.571Z,61.28
2022-12-14T13:29:58.533Z,60.36
2022-12-14T13:32:45.486Z,62.29
2022-12-14T13:35:37.100Z,63.00
2022-12-14T13:38:17.308Z,63.50
2022-12-14T13:41:04.961Z,64.45
2022-12-14T13:43:41.512Z,64.24
2022-12-14T13:46:16.568Z,63.92
2022-12-14T13:48:48.651Z,63.86
2022-12-14T13:51:22.815Z,63.21
2022-12-14T13:53:55.033Z,63.14
2022-12-14T13:56:32.612Z,63.26
2022-12-14T13:59:03.042Z,63.10
2022-12-14T14:02:02.336Z,62.94
2022-12-14T14:04:35.693Z,62.91
2022-12-14T14:07:41.239Z,62.83
2022-12-14T14:10:32.114Z,64.36
2022-12-14T14:13:02.060Z,65.26
2022-12-14T14:15:34.165Z,66.41
2022-12-14T14:18:24.981Z,67.08
2022-12-14T14:21:17.224Z,66.83
2022-12-14T14:23:56.035Z,67.56
2022-12-14T14:26:29.902Z,68.76
2022-12-14T14:29:26.627Z,68.74
2022-12-14T14:31:58.151Z,68.77
2022-12-14T14:34:50.547Z,68.40
2022-12-14T14:37:31.780Z,67.29
2022-12-14T14:40:23.956Z,66.16
2022-12-14T14:43:05.370Z,67.32
2022-12-14T14:45:43.181Z,66.88
2022-12-14T14:48:28.231Z,65.17
2022-12-14T14:51:06.416Z,65.21
2022-12-14T14:53:38.782Z,64.52
2022-12-14T14:56:34.776Z,64.01
2022-12-14T14:59:40.264Z,62.97
2022-12-14T15:02:28.187Z,62.27
2022-12-14T15:05:17.529Z,61.72
2022-12-14T15:07:47.672Z,61.66
2022-12-14T15:10:22.987Z,61.94
2022-12-14T15:12:54.055Z,62.16
2022-12-14T15:15:25.511Z,62.25
2022-12-14T15:17:54.995Z,62.99
2022-12-14T15:20:26.003Z,63.41
2022-12-14T15:22:56.067Z,63.04
2022-12-14T15:25:29.038Z,63.40
2022-12-14T15:27:59.283Z,63.90
2022-12-14T15:30:29.567Z,64.10
2022-12-14T15:33:00.935Z,63.11
2022-12-14T15:35:31.270Z,63.75
2022-12-14T15:38:03.096Z,63.82
2022-12-14T15:40:35.360Z,63.66
2022-12-14T15:43:05.733Z,64.11
2022-12-14T15:45:37.762Z,63.32
2022-12-14T15:48:16.798Z,64.16
2022-12-14T15:50:46.823Z,64.20
2022-12-14T15:53:17.313Z,63.27
2022-12-14T15:56:00.185Z,63.44
2022-12-14T15:58:32.725Z,63.54
2022-12-14T16:01:04.501Z,63.25
2022-12-14T16:03:37.869Z,62.74
2022-12-14T16:06:07.637Z,62.36
2022-12-14T16:08:37.420Z,62.42
2022-12-14T16:11:12.937Z,62.59
2022-12-14T16:13:43.402Z,62.24
2022-12-14T16:16:14.086Z,62.11
2022-12-14T16:18:44.224Z,61.90
2022-12-14T16:21:28.822Z,61.99
2022-12-14T16:23:59.143Z,61.90
2022-12-14T16:26:35.815Z,61.59
2022-12-14T16:29:19.472Z,61.65
2022-12-14T16:31:49.247Z,61.66
2022-12-14T16:34:20.564Z,61.67
2022-12-14T16:37:22.773Z,61.76
2022-12-14T16:39:40.488Z,61.64
2022-12-14T16:42:20.807Z,61.11
2022-12-14T16:44:53.831Z,60.83
2022-12-14T16:48:02.449Z,60.78
2022-12-14T16:50:55.449Z,60.84
2022-12-14T16:53:25.198Z,60.59
2022-12-14T16:56:04.716Z,60.61
2022-12-14T16:58:36.772Z,60.36
2022-12-14T17:01:07.470Z,60.18
2022-12-14T17:03:37.930Z,59.92
2022-12-14T17:06:08.713Z,59.82
2022-12-14T17:08:38.714Z,59.63
2022-12-14T17:11:08.517Z,59.47
2022-12-14T17:13:40.591Z,59.19
2022-12-14T17:16:10.993Z,59.26
2022-12-14T17:18:41.273Z,59.11
2022-12-14T17:21:11.513Z,58.69
2022-12-14T17:23:41.556Z,59.08
2022-12-14T17:26:12.864Z,59.64
2022-12-14T17:28:45.030Z,59.81
2022-12-14T17:31:17.684Z,60.32
2022-12-14T17:33:47.174Z,60.23
2022-12-14T17:36:16.617Z,60.14
2022-12-14T17:38:46.100Z,60.62
2022-12-14T17:41:18.019Z,60.24
2022-12-14T17:43:55.238Z,59.77
2022-12-14T17:46:26.608Z,59.69
2022-12-14T17:48:57.001Z,59.37
2022-12-14T17:51:29.226Z,59.16
2022-12-14T17:53:59.246Z,59.13
2022-12-14T17:56:28.663Z,59.44
2022-12-14T17:59:00.739Z,60.07
2022-12-14T18:01:30.285Z,60.37
2022-12-14T18:03:59.879Z,60.65
2022-12-14T18:06:29.406Z,61.07
2022-12-14T18:08:58.915Z,60.88
2022-12-14T18:11:29.597Z,60.87
2022-12-14T18:14:01.674Z,60.84
2022-12-14T18:16:31.307Z,60.71
2022-12-14T18:19:00.890Z,60.72
2022-12-14T18:21:31.140Z,60.76
2022-12-14T18:24:00.768Z,61.02
2022-12-14T18:26:30.208Z,60.81
2022-12-14T18:29:02.352Z,60.70
2022-12-14T18:31:34.440Z,61.28
2022-12-14T18:34:03.960Z,61.24
2022-12-14T18:36:33.440Z,61.82
2022-12-14T18:39:02.949Z,61.67
2022-12-14T18:41:32.397Z,61.55
2022-12-14T18:44:04.523Z,61.94
2022-12-14T18:46:33.986Z,62.07
2022-12-14T18:49:03.478Z,61.95
2022-12-14T18:51:32.980Z,62.16
2022-12-14T18:54:03.369Z,62.11
2022-12-14T18:56:33.105Z,62.27
2022-12-14T18:59:05.170Z,62.73
2022-12-14T19:01:34.753Z,63.42
2022-12-14T19:04:04.441Z,63.75
2022-12-14T19:06:44.277Z,63.97
2022-12-14T19:09:14.953Z,63.85
2022-12-14T19:11:44.408Z,63.80
2022-12-14T19:14:16.464Z,63.43
2022-12-14T19:16:45.962Z,62.88
2022-12-14T19:19:15.415Z,62.74
2022-12-14T19:21:44.875Z,62.66
2022-12-14T19:24:16.757Z,63.18
2022-12-14T19:26:49.545Z,62.87
2022-12-14T19:29:21.781Z,63.00
2022-12-14T19:31:54.241Z,63.35
2022-12-14T19:34:24.227Z,63.78
2022-12-14T19:36:53.659Z,63.96
2022-12-14T19:39:23.150Z,63.81
2022-12-14T19:41:54.195Z,63.58
2022-12-14T19:44:26.042Z,63.52
2022-12-14T19:46:55.545Z,63.89
2022-12-14T19:49:25.042Z,63.84
2022-12-14T19:51:54.539Z,63.58
2022-12-14T19:54:24.017Z,62.88
2022-12-14T19:56:54.574Z,63.02
2022-12-14T19:59:26.615Z,62.98
2022-12-14T20:01:56.281Z,63.33
2022-12-14T20:04:25.926Z,63.33
2022-12-14T20:06:55.430Z,63.59
2022-12-14T20:09:24.876Z,63.72
2022-12-14T20:11:54.361Z,63.43
2022-12-14T20:14:26.533Z,63.87
2022-12-14T20:16:56.088Z,63.66
2022-12-14T20:19:25.616Z,63.51
2022-12-14T20:21:55.123Z,62.78
2022-12-14T20:24:24.591Z,62.92
2022-12-14T20:26:54.060Z,62.66
2022-12-14T20:29:27.270Z,62.61
2022-12-14T20:31:57.845Z,62.87
2022-12-14T20:34:29.049Z,62.84
2022-12-14T20:36:58.513Z,63.26
2022-12-14T20:39:27.950Z,62.71
2022-12-14T20:41:57.458Z,63.20
2022-12-14T20:44:29.477Z,65.47
2022-12-14T20:46:58.956Z,66.95
2022-12-14T20:49:30.142Z,66.65
2022-12-14T20:51:59.936Z,65.25
2022-12-14T20:54:29.403Z,64.14
2022-12-14T20:56:59.027Z,63.79
2022-12-14T20:59:31.136Z,63.79
2022-12-14T21:02:00.769Z,64.03
2022-12-14T21:04:30.459Z,64.72
2022-12-14T21:06:59.961Z,64.35
2022-12-14T21:09:29.417Z,63.58
2022-12-14T21:12:11.355Z,62.84
2022-12-14T21:14:48.163Z,62.83
2022-12-14T21:17:17.789Z,63.22
2022-12-14T21:19:47.262Z,62.89
2022-12-14T21:22:17.469Z,63.13
2022-12-14T21:25:04.832Z,62.70
2022-12-14T21:27:35.754Z,62.86
2022-12-14T21:30:08.997Z,62.84
2022-12-14T21:32:38.597Z,64.28
2022-12-14T21:35:08.969Z,64.08
2022-12-14T21:37:40.062Z,63.53
2022-12-14T21:40:30.203Z,63.38
2022-12-14T21:42:57.099Z,63.55
2022-12-14T21:45:31.987Z,63.73
2022-12-14T21:48:01.486Z,63.27
2022-12-14T21:50:30.961Z,63.05
2022-12-14T21:53:00.408Z,63.06
2022-12-14T21:55:29.970Z,63.52
2022-12-14T21:58:11.947Z,63.11
2022-12-14T22:00:44.038Z,62.85
2022-12-14T22:03:13.774Z,62.08
2022-12-14T22:05:43.282Z,61.78
2022-12-14T22:08:12.855Z,61.24
2022-12-14T22:10:42.375Z,61.93
2022-12-14T22:13:11.857Z,62.04
2022-12-14T22:15:43.905Z,62.21
2022-12-14T22:18:13.381Z,62.09
2022-12-14T22:20:43.016Z,62.10
2022-12-14T22:23:12.472Z,62.09
2022-12-14T22:25:41.932Z,62.31
2022-12-14T22:28:11.388Z,62.02
2022-12-14T22:30:41.023Z,61.41
2022-12-14T22:33:13.086Z,61.33
2022-12-14T22:35:42.548Z,62.13
2022-12-14T22:38:12.065Z,61.89
2022-12-14T22:40:41.542Z,61.88
2022-12-14T22:43:11.113Z,62.30
2022-12-14T22:45:40.609Z,62.82
2022-12-14T22:48:12.696Z,63.15
2022-12-14T22:50:42.170Z,62.70
2022-12-14T22:53:12.986Z,63.14
2022-12-14T22:55:42.458Z,62.72
2022-12-14T22:58:12.158Z,62.62
2022-12-14T23:00:41.660Z,62.88
2022-12-14T23:03:14.284Z,63.91
2022-12-14T23:05:43.829Z,64.42
2022-12-14T23:08:13.287Z,63.88
2022-12-14T23:10:55.243Z,63.92
2022-12-14T23:13:37.179Z,63.42
2022-12-14T23:16:19.794Z,63.67
2022-12-14T23:19:04.343Z,63.41
2022-12-14T23:21:46.285Z,63.40
2022-12-14T23:24:28.249Z,63.34
2022-12-14T23:27:10.241Z,63.04
2022-12-14T23:29:52.237Z,63.02
2022-12-14T23:32:34.236Z,63.27
2022-12-14T23:35:19.185Z,63.47
2022-12-14T23:38:01.127Z,62.93
2022-12-14T23:40:43.076Z,62.97
2022-12-14T23:43:25.081Z,63.28
2022-12-14T23:46:07.077Z,62.84
2022-12-14T23:48:49.044Z,63.15
2022-12-14T23:51:33.566Z,63.33
2022-12-14T23:54:15.496Z,62.55
2022-12-14T23:56:57.424Z,62.56
2022-12-14T23:59:39.356Z,62.51
